createdAt,value
2023-01-10T00:55:35.796Z,25.00
2023-01-10T00:56:36.756Z,25.00
2023-01-10T00:57:36.742Z,25.00
2023-01-10T00:58:36.725Z,25.00
2023-01-10T00:59:36.720Z,25.00
2023-01-10T01:00:36.714Z,25.00
2023-01-10T01:01:36.881Z,0.76
2023-01-10T01:02:36.763Z,1.33
2023-01-10T01:03:36.687Z,1.99
2023-01-10T01:04:36.680Z,11.62
2023-01-10T01:05:36.663Z,23.42
2023-01-10T01:06:36.655Z,25.93
2023-01-10T01:07:36.641Z,25.59
2023-01-10T01:08:36.642Z,25.05
2023-01-10T01:09:36.628Z,27.14
2023-01-10T01:10:36.615Z,26.60
2023-01-10T01:11:36.629Z,24.28
2023-01-10T01:12:36.592Z,25.27
2023-01-10T01:13:36.589Z,25.79
2023-01-10T01:14:36.577Z,26.92
2023-01-10T01:15:36.585Z,25.26
2023-01-10T01:16:36.587Z,25.27
2023-01-10T01:17:36.551Z,28.69
2023-01-10T01:18:36.552Z,26.72
2023-01-10T01:19:36.530Z,26.18
2023-01-10T01:20:36.517Z,25.00
2023-01-10T01:21:36.509Z,27.53
2023-01-10T01:22:36.505Z,27.67
2023-01-10T01:23:36.490Z,27.60
2023-01-10T01:24:36.485Z,26.91
2023-01-10T01:25:36.472Z,26.99
2023-01-10T01:26:36.462Z,26.44
2023-01-10T01:27:36.477Z,25.86
2023-01-10T01:28:36.443Z,26.59
2023-01-10T01:29:42.939Z,26.37
2023-01-10T01:30:36.422Z,26.64
2023-01-10T01:31:36.413Z,26.96
2023-01-10T01:32:36.405Z,27.57
2023-01-10T01:33:36.392Z,26.31
2023-01-10T01:34:36.387Z,25.23
2023-01-10T01:35:36.377Z,25.99
2023-01-10T01:36:36.376Z,29.64
2023-01-10T01:37:36.356Z,27.71
2023-01-10T01:38:36.351Z,25.63
2023-01-10T01:39:36.337Z,25.30
2023-01-10T01:40:36.331Z,26.23
2023-01-10T01:41:36.318Z,26.78
2023-01-10T01:42:36.313Z,27.77
2023-01-10T01:43:36.326Z,27.91
2023-01-10T01:44:36.306Z,25.21
2023-01-10T01:45:36.293Z,26.79
2023-01-10T01:46:36.364Z,28.01
2023-01-10T01:47:36.266Z,25.56
2023-01-10T01:48:36.255Z,29.11
2023-01-10T01:49:36.244Z,28.63
2023-01-10T01:50:36.242Z,26.73
2023-01-10T01:51:36.226Z,27.94
2023-01-10T01:52:36.219Z,28.79
2023-01-10T01:53:36.216Z,27.55
2023-01-10T01:54:36.197Z,28.35
2023-01-10T01:55:36.191Z,27.94
2023-01-10T01:56:36.179Z,26.68
2023-01-10T01:57:36.184Z,29.23
2023-01-10T01:58:36.158Z,27.53
2023-01-10T01:59:36.186Z,27.93
2023-01-10T02:00:36.188Z,26.98
2023-01-10T02:01:36.284Z,26.64
2023-01-10T02:02:36.154Z,28.94
2023-01-10T02:03:36.145Z,26.56
2023-01-10T02:04:36.124Z,27.62
2023-01-10T02:05:36.103Z,30.25
2023-01-10T02:06:36.094Z,28.95
2023-01-10T02:07:36.076Z,30.44
2023-01-10T02:08:36.063Z,29.93
2023-01-10T02:09:36.054Z,29.50
2023-01-10T02:10:36.044Z,31.11
2023-01-10T02:11:36.035Z,30.80
2023-01-10T02:12:36.029Z,27.71
2023-01-10T02:13:36.017Z,29.97
2023-01-10T02:14:36.011Z,26.76
2023-01-10T02:15:36.088Z,25.92
2023-01-10T02:16:35.988Z,28.39
2023-01-10T02:17:35.982Z,27.72
2023-01-10T02:18:35.974Z,27.71
2023-01-10T02:19:35.962Z,28.80
2023-01-10T02:20:35.951Z,27.95
2023-01-10T02:21:35.988Z,28.83
2023-01-10T02:22:35.934Z,28.49
2023-01-10T02:23:35.923Z,29.46
2023-01-10T02:24:35.914Z,26.68
2023-01-10T02:25:35.911Z,28.46
2023-01-10T02:26:35.899Z,25.82
2023-01-10T02:27:35.889Z,29.60
2023-01-10T02:28:35.886Z,28.43
2023-01-10T02:29:35.888Z,28.05
2023-01-10T02:30:35.878Z,28.01
2023-01-10T02:31:36.007Z,27.87
2023-01-10T02:32:45.945Z,31.25
2023-01-10T02:33:35.829Z,31.57
2023-01-10T02:34:35.845Z,32.20
2023-01-10T02:35:35.817Z,30.20
2023-01-10T02:36:35.798Z,32.80
2023-01-10T02:37:35.795Z,31.32
2023-01-10T02:38:35.781Z,31.37
2023-01-10T02:39:35.775Z,30.01
2023-01-10T02:40:35.768Z,29.57
2023-01-10T02:41:35.757Z,29.89
2023-01-10T02:42:35.750Z,29.87
2023-01-10T02:43:35.750Z,28.02
2023-01-10T02:44:35.725Z,31.49
2023-01-10T02:45:35.715Z,29.05
2023-01-10T02:46:35.767Z,29.82
2023-01-10T02:47:35.721Z,31.38
2023-01-10T02:48:35.689Z,30.50
2023-01-10T02:49:35.685Z,29.03
2023-01-10T02:50:35.676Z,31.35
2023-01-10T02:51:35.667Z,30.68
2023-01-10T02:52:35.658Z,29.07
2023-01-10T02:53:35.647Z,31.47
2023-01-10T02:54:35.631Z,27.91
2023-01-10T02:55:35.630Z,32.79
2023-01-10T02:56:35.619Z,27.18
2023-01-10T02:57:35.605Z,29.20
2023-01-10T02:58:35.590Z,31.81
2023-01-10T02:59:35.596Z,29.99
2023-01-10T03:00:35.574Z,30.74
2023-01-10T03:01:35.688Z,31.00
2023-01-10T03:02:35.554Z,29.26
2023-01-10T03:03:35.666Z,31.15
2023-01-10T03:04:35.599Z,29.67
2023-01-10T03:05:35.526Z,28.80
2023-01-10T03:06:35.538Z,28.57
2023-01-10T03:07:35.528Z,28.43
2023-01-10T03:08:35.516Z,29.81
2023-01-10T03:09:35.503Z,30.84
2023-01-10T03:10:35.529Z,32.93
2023-01-10T03:11:35.513Z,34.24
2023-01-10T03:12:35.464Z,28.55
2023-01-10T03:13:35.460Z,30.93
2023-01-10T03:14:35.469Z,31.20
2023-01-10T03:15:35.436Z,31.99
2023-01-10T03:16:35.425Z,28.42
2023-01-10T03:17:35.422Z,29.23
2023-01-10T03:18:35.408Z,32.92
2023-01-10T03:19:35.423Z,29.78
2023-01-10T03:20:35.401Z,29.69
2023-01-10T03:21:35.391Z,29.48
2023-01-10T03:22:35.379Z,28.28
2023-01-10T03:23:35.364Z,30.60
2023-01-10T03:24:35.352Z,28.03
2023-01-10T03:25:35.349Z,29.46
2023-01-10T03:26:35.351Z,29.98
2023-01-10T03:27:35.325Z,32.26
2023-01-10T03:28:35.325Z,30.89
2023-01-10T03:29:35.311Z,32.45
2023-01-10T03:30:35.297Z,30.75
2023-01-10T03:31:35.302Z,33.68
2023-01-10T03:32:35.282Z,31.06
2023-01-10T03:33:35.268Z,34.04
2023-01-10T03:34:35.344Z,31.36
2023-01-10T03:35:35.291Z,30.87
2023-01-10T03:36:35.250Z,31.47
2023-01-10T03:37:35.229Z,30.50
2023-01-10T03:38:35.232Z,32.27
2023-01-10T03:39:35.208Z,31.12
2023-01-10T03:40:35.203Z,31.91
2023-01-10T03:41:35.210Z,32.51
2023-01-10T03:42:35.193Z,30.78
2023-01-10T03:43:35.175Z,35.11
2023-01-10T03:44:35.199Z,31.71
2023-01-10T03:45:35.157Z,31.98
2023-01-10T03:46:35.209Z,32.46
2023-01-10T03:47:35.141Z,31.54
2023-01-10T03:48:35.131Z,32.11
2023-01-10T03:49:35.118Z,31.83
2023-01-10T03:50:35.117Z,31.81
2023-01-10T03:51:35.126Z,31.54
2023-01-10T03:52:35.146Z,31.24
2023-01-10T03:53:35.083Z,32.27
2023-01-10T03:54:35.092Z,31.80
2023-01-10T03:55:35.080Z,32.30
2023-01-10T03:56:35.056Z,30.45
2023-01-10T03:57:35.047Z,32.59
2023-01-10T03:58:35.043Z,29.30
2023-01-10T03:59:35.034Z,30.20
2023-01-10T04:00:35.020Z,33.95
2023-01-10T04:01:35.082Z,34.42
2023-01-10T04:02:35.001Z,32.94
2023-01-10T04:03:34.988Z,34.23
2023-01-10T04:04:34.979Z,30.83
2023-01-10T04:05:34.968Z,31.14
2023-01-10T04:06:34.959Z,35.33
2023-01-10T04:07:34.978Z,30.60
2023-01-10T04:08:34.945Z,33.66
2023-01-10T04:09:34.933Z,32.04
2023-01-10T04:10:34.925Z,33.07
2023-01-10T04:11:34.912Z,35.47
2023-01-10T04:12:34.907Z,31.33
2023-01-10T04:13:34.898Z,34.50
2023-01-10T04:14:34.884Z,29.80
2023-01-10T04:15:34.880Z,35.47
2023-01-10T04:16:34.920Z,33.55
2023-01-10T04:17:34.862Z,33.65
2023-01-10T04:18:34.848Z,35.14
2023-01-10T04:19:34.842Z,32.06
2023-01-10T04:20:34.831Z,35.81
2023-01-10T04:21:34.820Z,30.65
2023-01-10T04:22:34.810Z,30.99
2023-01-10T04:23:34.835Z,31.69
2023-01-10T04:24:34.798Z,33.85
2023-01-10T04:25:34.780Z,33.29
2023-01-10T04:26:34.775Z,32.20
2023-01-10T04:27:34.773Z,34.94
2023-01-10T04:28:34.764Z,33.19
2023-01-10T04:29:34.755Z,34.41
2023-01-10T04:30:34.733Z,29.56
2023-01-10T04:31:34.863Z,33.92
2023-01-10T04:32:34.725Z,31.55
2023-01-10T04:33:34.712Z,33.77
2023-01-10T04:34:34.694Z,32.71
2023-01-10T04:35:34.689Z,34.20
2023-01-10T04:36:34.678Z,33.35
2023-01-10T04:37:34.681Z,31.31
2023-01-10T04:39:34.686Z,35.56
2023-01-10T04:40:34.639Z,34.49
2023-01-10T04:41:34.627Z,28.99
2023-01-10T04:42:34.633Z,34.92
2023-01-10T04:43:34.619Z,32.67
2023-01-10T04:44:34.606Z,34.09
2023-01-10T04:45:34.654Z,32.40
2023-01-10T04:46:34.580Z,31.53
2023-01-10T04:47:34.573Z,30.75
2023-01-10T04:48:34.567Z,31.98
2023-01-10T04:49:34.554Z,33.75
2023-01-10T04:50:34.541Z,35.22
2023-01-10T04:51:34.547Z,32.51
2023-01-10T04:52:34.522Z,32.96
2023-01-10T04:53:34.527Z,31.78
2023-01-10T04:54:34.506Z,31.82
2023-01-10T04:55:34.576Z,32.51
2023-01-10T04:56:34.486Z,31.63
2023-01-10T04:57:34.482Z,33.43
2023-01-10T04:58:34.471Z,33.20
2023-01-10T04:59:34.457Z,32.06
2023-01-10T05:00:34.459Z,34.61
2023-01-10T05:01:34.434Z,34.48
2023-01-10T05:02:34.530Z,31.73
2023-01-10T05:03:34.440Z,33.73
2023-01-10T05:04:34.406Z,33.36
2023-01-10T05:05:34.553Z,33.68
2023-01-10T05:06:34.392Z,34.69
2023-01-10T05:07:34.378Z,33.30
2023-01-10T05:08:34.370Z,33.40
2023-01-10T05:09:34.364Z,33.73
2023-01-10T05:10:34.364Z,34.89
2023-01-10T05:11:34.365Z,31.84
2023-01-10T05:12:34.334Z,32.34
2023-01-10T05:13:34.324Z,34.49
2023-01-10T05:14:34.318Z,35.27
2023-01-10T05:15:34.395Z,34.15
2023-01-10T05:16:34.354Z,32.46
2023-01-10T05:17:34.288Z,36.89
2023-01-10T05:18:34.281Z,34.71
2023-01-10T05:19:34.262Z,33.64
2023-01-10T05:20:34.265Z,34.08
2023-01-10T05:21:34.249Z,36.47
2023-01-10T05:22:34.232Z,33.51
2023-01-10T05:23:34.232Z,33.49
2023-01-10T05:24:34.237Z,33.52
2023-01-10T05:25:34.309Z,34.49
2023-01-10T05:26:34.208Z,32.88
2023-01-10T05:27:34.221Z,35.71
2023-01-10T05:28:34.196Z,32.45
2023-01-10T05:29:34.172Z,33.16
2023-01-10T05:30:34.177Z,33.70
2023-01-10T05:31:34.203Z,35.47
2023-01-10T05:32:34.141Z,33.38
2023-01-10T05:33:34.136Z,35.60
2023-01-10T05:34:34.118Z,33.70
2023-01-10T05:35:34.105Z,32.33
2023-01-10T05:36:34.100Z,32.33
2023-01-10T05:37:34.091Z,32.79
2023-01-10T05:38:34.189Z,33.18
2023-01-10T05:39:34.072Z,34.19
2023-01-10T05:40:34.062Z,31.88
2023-01-10T05:41:34.052Z,33.03
2023-01-10T05:42:34.043Z,34.78
2023-01-10T05:43:34.062Z,36.37
2023-01-10T05:44:34.028Z,30.61
2023-01-10T05:45:34.124Z,34.46
2023-01-10T05:46:34.012Z,32.99
2023-01-10T05:47:34.003Z,34.25
2023-01-10T05:48:33.989Z,35.91
2023-01-10T05:49:34.320Z,33.65
2023-01-10T05:50:33.969Z,35.71
2023-01-10T05:51:33.962Z,36.71
2023-01-10T05:52:33.958Z,36.72
2023-01-10T05:53:33.969Z,32.69
2023-01-10T05:54:33.930Z,31.52
2023-01-10T05:55:33.981Z,33.44
2023-01-10T05:56:33.921Z,34.17
2023-01-10T05:57:33.909Z,35.63
2023-01-10T05:58:33.902Z,34.93
2023-01-10T05:59:33.913Z,35.43
2023-01-10T06:00:33.871Z,31.99
2023-01-10T06:01:33.945Z,33.18
2023-01-10T06:02:34.025Z,34.99
2023-01-10T06:03:33.849Z,34.84
2023-01-10T06:04:33.850Z,33.37
2023-01-10T06:05:33.833Z,34.82
2023-01-10T06:06:33.817Z,35.41
2023-01-10T06:20:33.921Z,25.99
2023-01-10T06:21:33.913Z,26.12
2023-01-10T06:25:33.898Z,28.87
2023-01-10T06:30:33.911Z,29.82
2023-01-10T06:37:33.936Z,28.49
2023-01-10T06:42:33.928Z,26.13
2023-01-10T06:47:33.939Z,28.36
2023-01-10T07:41:33.911Z,116.24
2023-01-10T09:41:31.975Z,154.57
2023-01-10T09:42:31.920Z,143.70
2023-01-10T09:43:32.040Z,141.66
2023-01-10T09:46:32.013Z,141.78
2023-01-10T09:48:31.935Z,130.81
2023-01-10T09:50:31.886Z,127.42
2023-01-10T09:51:31.881Z,126.66
2023-01-10T09:52:31.851Z,125.73
2023-01-10T09:53:31.853Z,123.73
2023-01-10T09:54:32.002Z,128.65
2023-01-10T09:56:31.824Z,125.96
2023-01-10T09:57:31.874Z,118.84
2023-01-10T09:58:31.891Z,119.63
2023-01-10T10:00:32.957Z,113.49
2023-01-10T10:02:31.921Z,114.16
2023-01-10T10:03:31.978Z,118.62
2023-01-10T10:04:32.196Z,117.07
2023-01-10T10:05:31.835Z,113.23
2023-01-10T10:07:31.857Z,112.11
2023-01-10T10:10:32.113Z,110.21
2023-01-10T10:12:31.798Z,108.34
2023-01-10T10:13:31.870Z,105.10
2023-01-10T10:14:31.755Z,104.54
2023-01-10T10:15:32.048Z,106.81
2023-01-10T10:16:31.661Z,109.58
2023-01-10T10:17:31.617Z,106.40
2023-01-10T10:18:31.633Z,114.44
2023-01-10T10:19:31.618Z,108.15
2023-01-10T10:20:32.003Z,99.40
2023-01-10T10:21:31.659Z,100.10
2023-01-10T10:22:31.562Z,100.81
2023-01-10T10:23:34.000Z,102.54
2023-01-10T10:24:31.553Z,104.76
2023-01-10T10:25:32.023Z,103.19
2023-01-10T10:26:32.563Z,103.95
2023-01-10T10:27:31.723Z,103.02
2023-01-10T10:28:32.003Z,103.99
2023-01-10T10:29:31.528Z,100.10
2023-01-10T10:30:32.029Z,93.52
2023-01-10T10:31:31.818Z,96.51
2023-01-10T10:32:31.698Z,96.42
2023-01-10T10:33:31.513Z,102.79
2023-01-10T10:34:31.516Z,98.38
2023-01-10T10:35:31.660Z,97.54
2023-01-10T10:36:31.464Z,96.18
2023-01-10T10:37:31.429Z,91.55
2023-01-10T10:38:31.849Z,89.80
2023-01-10T10:39:31.440Z,87.64
2023-01-10T10:41:31.403Z,82.53
2023-01-10T10:42:34.985Z,80.25
2023-01-10T10:43:31.486Z,80.39
2023-01-10T10:44:31.407Z,80.32
2023-01-10T10:45:32.560Z,77.61
2023-01-10T10:46:31.411Z,74.86
2023-01-10T10:47:31.586Z,71.01
2023-01-10T10:48:31.988Z,67.24
2023-01-10T10:49:31.323Z,67.94
2023-01-10T10:50:31.303Z,66.36
2023-01-10T10:51:31.300Z,62.67
2023-01-10T10:52:31.506Z,60.57
2023-01-10T10:53:31.273Z,62.87
2023-01-10T10:54:31.267Z,60.90
2023-01-10T10:55:31.300Z,57.22
2023-01-10T10:56:31.247Z,54.81
2023-01-10T10:57:31.236Z,52.87
2023-01-10T10:58:31.225Z,53.43
2023-01-10T10:59:31.226Z,54.15
2023-01-10T11:00:31.225Z,52.98
2023-01-10T11:01:31.653Z,51.73
2023-01-10T11:02:31.189Z,47.80
2023-01-10T11:03:31.209Z,46.86
2023-01-10T11:04:31.205Z,45.56
2023-01-10T11:05:31.161Z,46.02
2023-01-10T11:07:38.550Z,46.34
2023-01-10T11:08:31.169Z,46.68
2023-01-10T11:09:31.177Z,47.20
2023-01-10T11:10:31.124Z,47.83
2023-01-10T11:11:31.127Z,46.68
2023-01-10T11:12:31.100Z,47.80
2023-01-10T11:13:31.103Z,44.91
2023-01-10T11:14:31.076Z,46.02
2023-01-10T11:15:31.065Z,46.02
2023-01-10T11:16:31.207Z,44.56
2023-01-10T11:17:31.058Z,43.70
2023-01-10T11:18:31.061Z,44.17
2023-01-10T11:19:31.060Z,43.48
2023-01-10T11:20:31.563Z,43.29
2023-01-10T11:21:31.017Z,45.11
2023-01-10T11:22:31.004Z,42.82
2023-01-10T11:23:30.995Z,40.63
2023-01-10T11:24:30.992Z,41.68
2023-01-10T11:25:31.011Z,40.55
2023-01-10T11:26:30.980Z,40.36
2023-01-10T11:27:30.957Z,40.61
2023-01-10T11:28:30.955Z,36.01
2023-01-10T11:29:30.937Z,38.06
2023-01-10T11:30:31.005Z,36.88
2023-01-10T11:31:31.091Z,35.29
2023-01-10T11:32:30.917Z,36.93
2023-01-10T11:33:31.035Z,34.54
2023-01-10T11:34:30.919Z,34.27
2023-01-10T11:35:30.909Z,35.75
2023-01-10T11:36:30.872Z,35.69
2023-01-10T11:38:31.880Z,36.88
2023-01-10T11:39:30.857Z,33.68
2023-01-10T11:40:30.855Z,35.77
2023-01-10T11:41:30.840Z,33.68
2023-01-10T11:42:30.833Z,33.17
2023-01-10T11:43:30.823Z,30.56
2023-01-10T11:44:31.024Z,30.45
2023-01-10T11:45:30.805Z,31.27
2023-01-10T11:46:30.797Z,27.11
2023-01-10T11:47:32.385Z,29.95
2023-01-10T11:48:59.767Z,30.23
2023-01-10T11:49:30.764Z,30.37
2023-01-10T11:50:30.747Z,30.81
2023-01-10T11:51:30.768Z,30.67
2023-01-10T11:52:31.043Z,28.51
2023-01-10T11:53:30.723Z,28.31
2023-01-10T11:54:30.710Z,25.00
2023-01-10T11:55:30.708Z,27.15
2023-01-10T11:56:30.688Z,25.00
2023-01-10T11:57:31.015Z,27.15
2023-01-10T11:58:30.666Z,27.13
2023-01-10T11:59:30.656Z,29.99
2023-01-10T12:00:30.649Z,26.94
2023-01-10T12:01:30.748Z,26.37
2023-01-10T12:02:31.070Z,26.07
2023-01-10T12:03:30.631Z,30.50
2023-01-10T12:04:30.610Z,31.29
2023-01-10T12:05:30.675Z,29.18
2023-01-10T12:06:30.633Z,25.79
2023-01-10T12:07:31.043Z,27.41
2023-01-10T12:08:30.590Z,26.10
2023-01-10T12:09:31.024Z,27.05
2023-01-10T12:10:30.558Z,27.29
2023-01-10T12:11:30.546Z,27.28
2023-01-10T12:12:31.104Z,25.89
2023-01-10T12:13:30.525Z,33.55
2023-01-10T12:14:30.523Z,0.00
2023-01-10T12:15:30.511Z,25.00
2023-01-10T12:16:30.598Z,25.00
2023-01-10T12:17:30.529Z,26.95
2023-01-10T12:18:30.480Z,22.23
2023-01-10T12:19:30.479Z,23.39
2023-01-10T12:20:30.461Z,28.86
2023-01-10T12:21:30.452Z,25.67
2023-01-10T12:22:30.548Z,23.37
2023-01-10T12:23:30.501Z,25.00
2023-01-10T12:24:30.443Z,44.43
2023-01-10T12:25:30.428Z,49.25
2023-01-10T12:26:30.413Z,66.13
2023-01-10T12:27:30.565Z,57.54
2023-01-10T12:28:30.397Z,49.18
2023-01-10T12:29:30.388Z,39.99
2023-01-10T12:30:30.480Z,40.75
2023-01-10T12:31:30.523Z,35.60
2023-01-10T12:32:30.352Z,37.77
2023-01-10T12:33:30.535Z,32.63
2023-01-10T12:34:30.344Z,43.38
2023-01-10T12:35:30.339Z,301.65
2023-01-10T12:36:30.320Z,113.96
2023-01-10T12:37:30.306Z,114.86
2023-01-10T12:38:30.526Z,127.33
2023-01-10T12:39:30.313Z,124.85
2023-01-10T12:40:30.297Z,129.80
2023-01-10T12:41:30.271Z,126.97
2023-01-10T12:42:30.283Z,128.08
2023-01-10T12:43:30.530Z,128.69
2023-01-10T12:44:30.253Z,279.22
2023-01-10T12:45:30.243Z,348.25
2023-01-10T12:47:04.207Z,500.00
2023-01-10T12:47:30.514Z,500.00
2023-01-10T12:48:30.551Z,500.00
2023-01-10T12:49:30.202Z,500.00
2023-01-10T12:50:30.182Z,500.00
2023-01-10T12:51:30.225Z,500.00
2023-01-10T12:52:30.238Z,500.00
2023-01-10T12:53:30.546Z,500.00
2023-01-10T12:54:30.151Z,500.00
2023-01-10T12:55:30.171Z,466.71
2023-01-10T13:08:30.536Z,238.08
2023-01-10T13:13:30.075Z,221.04
2023-01-10T13:19:30.058Z,206.19
2023-01-10T14:17:29.358Z,119.89
2023-01-10T14:43:29.119Z,110.81
2023-01-10T14:44:29.102Z,109.75
2023-01-10T14:45:30.066Z,109.10
2023-01-10T14:47:29.136Z,108.87
2023-01-10T14:48:29.189Z,109.44
2023-01-10T14:49:29.048Z,109.41
2023-01-10T14:50:29.076Z,106.47
2023-01-10T14:51:29.081Z,104.97
2023-01-10T14:52:29.036Z,106.38
2023-01-10T14:53:29.026Z,104.42
2023-01-10T14:54:29.001Z,104.99
2023-01-10T14:55:29.000Z,105.64
2023-01-10T14:56:28.987Z,106.50
2023-01-10T14:57:28.972Z,108.28
2023-01-10T14:58:28.966Z,107.26
2023-01-10T14:59:28.956Z,108.04
2023-01-10T15:00:28.964Z,109.82
2023-01-10T15:01:29.122Z,106.97
2023-01-10T15:02:28.931Z,106.20
2023-01-10T15:03:28.944Z,105.14
2023-01-10T15:04:28.949Z,103.75
2023-01-10T15:05:29.109Z,101.87
2023-01-10T15:06:28.893Z,102.70
2023-01-10T15:07:28.898Z,103.05
2023-01-10T15:08:28.901Z,103.92
2023-01-10T15:09:28.866Z,103.67
2023-01-10T15:10:28.865Z,104.39
2023-01-10T15:11:28.849Z,104.31
2023-01-10T15:12:28.829Z,103.40
2023-01-10T15:13:28.817Z,103.27
2023-01-10T15:14:28.817Z,101.92
2023-01-10T15:15:28.810Z,101.42
2023-01-10T15:16:28.854Z,99.22
2023-01-10T15:17:28.783Z,98.35
2023-01-10T15:18:28.778Z,97.50
2023-01-10T15:19:28.798Z,99.15
2023-01-10T15:20:28.757Z,100.16
2023-01-10T15:21:28.746Z,100.68
2023-01-10T15:22:28.742Z,101.85
2023-01-10T15:23:28.741Z,103.11
2023-01-10T15:24:29.087Z,105.21
2023-01-10T15:25:29.734Z,104.50
2023-01-10T15:26:28.702Z,110.43
2023-01-10T15:27:28.702Z,110.13
2023-01-10T15:28:28.691Z,109.21
2023-01-10T15:29:28.668Z,107.33
2023-01-10T15:30:28.660Z,105.21
2023-01-10T15:31:28.730Z,102.74
2023-01-10T15:32:28.645Z,102.67
2023-01-10T15:33:28.641Z,103.74
2023-01-10T15:34:28.659Z,103.49
2023-01-10T15:35:36.047Z,103.92
2023-01-10T15:36:28.609Z,103.95
2023-01-10T15:37:28.598Z,101.93
2023-01-10T15:38:28.599Z,102.77
2023-01-10T15:39:28.588Z,102.48
2023-01-10T15:40:28.569Z,100.88
2023-01-10T15:41:28.560Z,100.48
2023-01-10T15:42:28.565Z,102.02
2023-01-10T15:43:28.581Z,101.30
2023-01-10T15:44:28.530Z,101.17
2023-01-10T15:45:28.532Z,99.96
2023-01-10T15:46:28.619Z,100.76
2023-01-10T15:47:28.511Z,99.77
2023-01-10T15:48:28.486Z,99.47
2023-01-10T15:49:28.488Z,98.64
2023-01-10T15:50:28.611Z,99.44
2023-01-10T15:51:28.486Z,99.06
2023-01-10T15:52:28.446Z,98.26
2023-01-10T15:53:28.480Z,96.09
2023-01-10T15:54:28.457Z,95.58
2023-01-10T15:55:28.429Z,95.59
2023-01-10T15:56:28.445Z,96.15
2023-01-10T15:57:28.417Z,95.92
2023-01-10T15:58:28.390Z,95.69
2023-01-10T15:59:28.387Z,95.16
2023-01-10T16:00:28.435Z,93.75
2023-01-10T16:01:29.250Z,92.97
2023-01-10T16:02:28.627Z,92.75
2023-01-10T16:03:28.493Z,91.18
2023-01-10T16:04:28.344Z,89.86
2023-01-10T16:05:28.327Z,90.92
2023-01-10T16:06:28.315Z,91.19
2023-01-10T16:07:28.620Z,92.57
2023-01-10T16:08:28.304Z,92.52
2023-01-10T16:09:28.289Z,91.28
2023-01-10T16:10:28.294Z,91.42
2023-01-10T16:11:28.268Z,90.10
2023-01-10T16:12:28.262Z,90.25
2023-01-10T16:13:28.541Z,90.89
2023-01-10T16:14:28.255Z,91.76
2023-01-10T16:15:28.231Z,94.11
2023-01-10T16:16:28.267Z,97.24
2023-01-10T16:17:28.212Z,96.22
2023-01-10T16:18:28.195Z,95.64
2023-01-10T16:19:28.206Z,95.81
2023-01-10T16:20:28.186Z,96.89
2023-01-10T16:21:28.181Z,95.87
2023-01-10T16:22:28.166Z,96.03
2023-01-10T16:23:28.184Z,97.31
2023-01-10T20:02:26.083Z,144.54
2023-01-10T20:03:26.051Z,144.28
2023-01-10T20:04:26.036Z,146.67
2023-01-10T20:05:26.038Z,147.25
2023-01-10T20:06:26.087Z,150.57
2023-01-10T20:07:26.032Z,149.64
2023-01-10T20:08:26.022Z,150.16
2023-01-10T20:09:25.989Z,148.57
2023-01-10T20:10:25.979Z,147.68
2023-01-10T20:11:25.973Z,145.18
2023-01-10T20:12:25.965Z,146.86
2023-01-10T20:13:25.954Z,144.30
2023-01-10T20:14:25.955Z,144.92
2023-01-10T20:15:25.936Z,143.87
2023-01-10T20:16:25.922Z,145.60
2023-01-10T20:17:25.927Z,148.27
2023-01-10T20:18:25.904Z,147.34
2023-01-10T20:19:25.893Z,145.86
2023-01-10T20:20:25.889Z,144.15
2023-01-10T20:21:25.883Z,146.49
2023-01-10T20:22:25.865Z,145.57
2023-01-10T20:23:25.877Z,147.05
2023-01-10T20:24:25.848Z,147.43
2023-01-10T20:25:25.840Z,147.14
2023-01-10T20:26:25.832Z,145.43
2023-01-10T20:27:25.821Z,147.13
2023-01-10T20:28:25.810Z,149.01
2023-01-10T20:29:25.800Z,148.27
2023-01-10T20:30:25.795Z,148.00
2023-01-10T20:31:25.838Z,150.31
2023-01-10T20:32:25.775Z,150.35
2023-01-10T20:33:25.768Z,147.10
2023-01-10T20:34:25.762Z,149.54
2023-01-10T20:35:25.768Z,150.05
2023-01-10T20:36:25.746Z,149.89
2023-01-10T20:37:25.727Z,151.43
2023-01-10T20:38:25.723Z,150.83
2023-01-10T20:39:25.754Z,153.20
2023-01-10T20:40:25.703Z,150.44
2023-01-10T20:41:25.688Z,151.92
2023-01-10T20:42:25.701Z,151.00
2023-01-10T20:43:25.683Z,150.56
2023-01-10T20:44:25.681Z,149.72
2023-01-10T20:45:25.653Z,149.05
2023-01-10T20:46:25.669Z,150.95
2023-01-10T20:47:25.640Z,152.32
2023-01-10T20:48:25.631Z,150.87
2023-01-10T20:49:25.617Z,149.79
2023-01-10T20:50:25.609Z,149.34
2023-01-10T20:51:25.607Z,148.63
2023-01-10T20:52:25.601Z,149.43
2023-01-10T20:53:25.591Z,149.53
2023-01-10T20:54:25.581Z,150.65
2023-01-10T20:55:25.592Z,148.56
2023-01-10T20:56:25.554Z,149.19
2023-01-10T20:57:25.540Z,149.84
2023-01-10T20:58:25.564Z,152.48
2023-01-10T20:59:26.178Z,150.84
2023-01-10T21:00:26.212Z,150.56
2023-01-10T21:01:34.246Z,149.73
2023-01-10T21:02:25.651Z,149.85
2023-01-10T21:03:25.487Z,150.05
2023-01-10T21:04:25.476Z,150.25
2023-01-10T21:05:25.470Z,151.47
2023-01-10T21:06:25.489Z,153.22
2023-01-10T21:07:25.446Z,156.79
2023-01-10T21:08:25.440Z,156.99
2023-01-10T21:09:25.436Z,155.28
2023-01-10T21:10:25.421Z,155.48
2023-01-10T21:11:25.446Z,154.59
2023-01-10T21:12:27.513Z,153.69
2023-01-10T21:13:25.397Z,153.72
2023-01-10T21:14:25.379Z,153.84
2023-01-10T21:15:25.373Z,153.78
2023-01-10T21:16:25.699Z,152.83
2023-01-10T21:17:25.350Z,152.11
2023-01-10T21:18:25.376Z,153.26
2023-01-10T21:19:25.344Z,150.29
2023-01-10T21:20:25.323Z,149.94
2023-01-10T21:21:25.315Z,149.43
2023-01-10T21:22:25.303Z,150.59
2023-01-10T21:23:25.321Z,151.09
2023-01-10T21:24:25.298Z,151.86
2023-01-10T21:25:25.279Z,152.62
2023-01-10T21:26:25.271Z,153.24
2023-01-10T21:27:25.281Z,152.78
2023-01-10T21:28:25.246Z,153.48
2023-01-10T21:29:25.236Z,153.03
2023-01-10T21:30:25.233Z,154.09
2023-01-10T21:31:25.270Z,154.64
2023-01-10T21:32:25.208Z,153.36
2023-01-10T21:33:25.202Z,152.57
2023-01-10T21:34:25.192Z,152.14
2023-01-10T21:35:25.193Z,153.49
2023-01-10T21:36:25.177Z,153.77
2023-01-10T21:37:25.172Z,155.27
2023-01-10T21:38:25.150Z,154.54
2023-01-10T21:39:25.163Z,155.87
2023-01-10T21:40:25.262Z,154.04
2023-01-10T21:41:25.142Z,156.93
2023-01-10T21:42:25.114Z,155.32
2023-01-10T21:43:25.130Z,155.40
2023-01-10T21:44:25.093Z,153.69
2023-01-10T21:45:25.156Z,153.05
2023-01-10T21:46:25.167Z,153.34
2023-01-10T21:47:25.065Z,155.13
2023-01-10T21:48:25.055Z,155.08
2023-01-10T21:49:25.051Z,154.37
2023-01-10T21:50:25.059Z,156.08
2023-01-10T21:51:25.033Z,157.76
2023-01-10T21:52:25.019Z,159.01
2023-01-10T21:53:25.009Z,162.06
2023-01-10T21:54:25.006Z,158.42
2023-01-10T21:55:24.991Z,161.22
2023-01-10T21:56:24.982Z,161.16
2023-01-10T21:57:24.979Z,160.62
2023-01-10T21:58:24.960Z,162.59
2023-01-10T21:59:24.978Z,158.78
2023-01-10T22:00:24.947Z,161.02
2023-01-10T22:01:24.947Z,162.06
2023-01-10T22:02:24.918Z,160.96
2023-01-10T22:03:24.991Z,162.96
2023-01-10T22:04:24.905Z,161.77
2023-01-10T22:05:24.904Z,162.24
2023-01-10T22:06:24.943Z,161.47
2023-01-10T22:07:24.910Z,163.01
2023-01-10T22:08:24.859Z,163.57
2023-01-10T22:09:24.858Z,161.84
2023-01-10T22:10:24.864Z,160.51
2023-01-10T22:11:24.851Z,163.30
2023-01-10T22:12:24.845Z,163.50
2023-01-10T22:13:24.823Z,165.80
2023-01-10T22:14:24.809Z,165.22
2023-01-10T22:15:24.838Z,163.78
2023-01-10T22:16:24.811Z,160.88
2023-01-10T22:17:24.778Z,161.69
2023-01-10T22:18:24.768Z,161.37
2023-01-10T22:19:24.768Z,162.39
2023-01-10T22:20:24.757Z,162.06
2023-01-10T22:21:24.763Z,161.87
2023-01-10T22:22:24.726Z,162.25
2023-01-10T22:23:24.734Z,159.97
2023-01-10T22:24:24.764Z,158.57
2023-01-10T22:25:24.705Z,159.27
2023-01-10T22:26:24.697Z,161.77
2023-01-10T22:27:24.685Z,160.36
2023-01-10T22:28:24.674Z,160.63
2023-01-10T22:29:24.668Z,163.17
2023-01-10T22:30:24.652Z,162.67
2023-01-10T22:31:24.699Z,163.55
2023-01-10T22:32:24.635Z,162.17
2023-01-10T22:33:24.634Z,163.02
2023-01-10T22:34:24.615Z,162.38
2023-01-10T22:35:24.608Z,166.85
2023-01-10T22:36:24.604Z,165.99
2023-01-10T22:37:24.586Z,163.27
2023-01-10T22:38:24.579Z,162.45
2023-01-10T22:39:24.566Z,162.69
2023-01-10T22:40:24.562Z,165.37
2023-01-10T22:41:24.549Z,165.26